George Allen — WDF9749 — position and weather

sailwx.info

Track history (hours):
 
Tides and Currents Weather Stations Pressure Air Temp Water Temp Dewpoint Dewpoint Depression Visibility Wind Speed Wind Dir Waves Ship Positions

George Allen

Owner: Blessey Enterprises, Inc., Harahan, LA. More information available from US FCC via Universal Licensing System and Coast Guard Vessel Documentation Center.

Last reported at 2017-Apr-14 12:05 UTC. Time now 2017-Apr-29 13:46 UTC.
Position N 29°33' W 090°28'.
Warning: this ship's position is 15 days out of date.

Length 23 m; draft 3.5 m.

Type: Towing. MMSI: 367508440.

Date/timePositionNaut miles runAvg speedWind from/ knotsBaromVisibWave heightAir tempDewpointWater temp
2017-Apr-14 12:05N 29°33' W 090°28'0 5.0
2017-Apr-14 12:00N 29°33' W 090°28'3 5.2
2017-Apr-14 11:30N 29°34' W 090°31'3 5.0
2017-Apr-14 11:00N 29°34' W 090°34'2 4.8
2017-Apr-14 10:30N 29°35' W 090°37'2 4.9
2017-Apr-14 10:00N 29°36' W 090°39'2 4.8
2017-Apr-14 09:30N 29°37' W 090°42'2 3.5
2017-Apr-14 09:00N 29°35' W 090°43'2 3.5
2017-Apr-14 08:30N 29°34' W 090°44'3 5.1
2017-Apr-14 08:00N 29°32' W 090°46'3 6.1
2017-Apr-14 07:30N 29°32' W 090°50'3 5.9
2017-Apr-14 07:00N 29°32' W 090°53'3 6.1
2017-Apr-14 06:30N 29°34' W 090°56'49 4.0
2017-Apr-13 18:07N 29°49' W 091°50'3 4.5
2017-Apr-13 17:25N 29°51' W 091°53'2 5.2
2017-Apr-13 17:00N 29°51' W 091°55'2 5.0
2017-Apr-13 16:30N 29°50' W 091°58'2 4.7
2017-Apr-13 16:00N 29°50' W 092°01'3 5.2
2017-Apr-13 15:30N 29°49' W 092°03'3 5.5
2017-Apr-13 15:00N 29°48' W 092°06'3 5.4
2017-Apr-13 14:30N 29°47' W 092°09'5 4.8
2017-Apr-13 13:30N 29°48' W 092°15'3 5.1
2017-Apr-13 13:00N 29°49' W 092°17'2 4.5
2017-Apr-13 12:30N 29°50' W 092°20'2 4.3
2017-Apr-13 11:58N 29°52' W 092°22'2 4.5
2017-Apr-13 11:30N 29°53' W 092°24'0 0.3
2017-Apr-13 11:00N 29°53' W 092°24'0 0.0
2017-Apr-13 10:30N 29°53' W 092°24'0 0.3
2017-Apr-13 10:00N 29°53' W 092°24'0 0.3
2017-Apr-13 09:11N 29°53' W 092°24'0 0.3
2017-Apr-13 08:59N 29°53' W 092°24'1 2.4
2017-Apr-13 08:30N 29°53' W 092°26'3 4.2
2017-Apr-13 07:42N 29°54' W 092°30'8 4.7
2017-Apr-13 05:55N 29°56' W 092°39'2 4.9
2017-Apr-13 05:27N 29°57' W 092°41'5 4.6
2017-Apr-13 04:20N 29°58' W 092°47'13 4.3
2017-Apr-13 01:18N 29°56' W 093°02'1 4.5
2017-Apr-13 01:00N 29°56' W 093°03'2 4.3
2017-Apr-13 00:30N 29°56' W 093°06'1 1.6
2017-Apr-13 00:00N 29°56' W 093°07'2 4.4
2017-Apr-12 23:30N 29°56' W 093°09'2 4.3
2017-Apr-12 23:00N 29°58' W 093°11'2 4.5
2017-Apr-12 22:30N 29°59' W 093°13'2 4.1
2017-Apr-12 22:00N 30°01' W 093°14'2 4.1
2017-Apr-12 21:30N 30°02' W 093°16'2 4.2
2017-Apr-12 21:00N 30°04' W 093°16'2 3.0
2017-Apr-12 20:30N 30°05' W 093°18'1 2.2
2017-Apr-12 20:00N 30°06' W 093°19'2 4.1
2017-Apr-12 19:30N 30°05' W 093°20'2 3.6
2017-Apr-12 19:00N 30°04' W 093°22'0 0.0
2017-Apr-12 18:30N 30°04' W 093°22'0 0.0
2017-Apr-12 18:00N 30°04' W 093°22'0 0.0
2017-Apr-12 17:30N 30°04' W 093°22'0 0.4
2017-Apr-12 17:00N 30°04' W 093°22'1 2.9
2017-Apr-12 16:30N 30°04' W 093°24'2 3.6
2017-Apr-12 16:00N 30°04' W 093°26'2 4.1
2017-Apr-12 15:30N 30°04' W 093°28'2 3.6
2017-Apr-12 15:00N 30°04' W 093°30'2 4.0
2017-Apr-12 14:30N 30°04' W 093°33'4 3.8
2017-Apr-12 13:30N 30°04' W 093°37'2 4.2
2017-Apr-12 13:00N 30°04' W 093°40'  
2017-Apr-07 13:07N 29°48' W 094°01'0 4.0
2017-Apr-07 13:00N 29°48' W 094°00'3 3.4
2017-Apr-07 12:15N 29°49' W 093°58'2 5.2
2017-Apr-07 11:53N 29°51' W 093°57'3 5.8
2017-Apr-07 11:19N 29°54' W 093°55'3 5.9
2017-Apr-07 10:51N 29°56' W 093°52'7 4.9
2017-Apr-07 09:29N 29°60' W 093°46'3 5.4
2017-Apr-07 09:00N 30°02' W 093°44'3 4.7
2017-Apr-07 08:28N 30°03' W 093°42'2 4.6
2017-Apr-07 08:01N 30°04' W 093°40'2 4.6
2017-Apr-07 07:30N 30°04' W 093°37'2 4.2
2017-Apr-07 07:00N 30°04' W 093°35'2 4.0
2017-Apr-07 06:30N 30°04' W 093°32'2 4.1
2017-Apr-07 06:01N 30°04' W 093°30'2 4.1
2017-Apr-07 05:31N 30°04' W 093°27'2 4.1
2017-Apr-07 05:00N 30°04' W 093°25'2 4.0
2017-Apr-07 04:31N 30°04' W 093°23'2 3.5
2017-Apr-07 04:00N 30°04' W 093°21'2 3.7
2017-Apr-07 03:30N 30°05' W 093°20'3 5.8
2017-Apr-07 03:00N 30°08' W 093°20'3 5.4
2017-Apr-07 02:31N 30°11' W 093°19'0 0.3
2017-Apr-07 02:00N 30°11' W 093°19'0 0.3
2017-Apr-07 01:30N 30°11' W 093°19'0 0.0
2017-Apr-07 01:00N 30°11' W 093°19'0 0.0
2017-Apr-07 00:30N 30°11' W 093°19'0 0.0
2017-Apr-07 00:01N 30°11' W 093°19'0 0.0
2017-Apr-06 23:30N 30°11' W 093°19'0 0.0
2017-Apr-06 23:00N 30°11' W 093°19'0 0.0
2017-Apr-06 22:30N 30°11' W 093°19'0 0.0
2017-Apr-06 22:00N 30°11' W 093°19'0 0.0
2017-Apr-06 21:30N 30°11' W 093°19'0 0.0
2017-Apr-06 21:00N 30°11' W 093°19'0 0.0
2017-Apr-06 20:30N 30°11' W 093°19'0 0.0
2017-Apr-06 20:01N 30°11' W 093°19'0 0.0
2017-Apr-06 19:31N 30°11' W 093°19'0 0.0
2017-Apr-06 19:00N 30°11' W 093°19'0 0.0
2017-Apr-06 18:30N 30°11' W 093°19'0 0.0
2017-Apr-06 18:00N 30°11' W 093°19'0 0.0
2017-Apr-06 17:30N 30°11' W 093°19'0 0.0
2017-Apr-06 17:01N 30°11' W 093°19'0 0.0
2017-Apr-06 16:31N 30°11' W 093°19'0 0.0
2017-Apr-06 16:00N 30°11' W 093°19'0 0.0
2017-Apr-06 15:30N 30°11' W 093°19'0 0.0
2017-Apr-06 15:01N 30°11' W 093°19'0 0.0
2017-Apr-06 14:30N 30°11' W 093°19'0 0.0
2017-Apr-06 13:30N 30°11' W 093°19'0 0.0
2017-Apr-06 13:00N 30°11' W 093°19'0 0.0
2017-Apr-06 12:30N 30°11' W 093°19'0 0.0
2017-Apr-06 12:00N 30°11' W 093°19'0 0.0
2017-Apr-06 11:30N 30°11' W 093°19'0 0.0
2017-Apr-06 11:00N 30°11' W 093°19'0 0.0
2017-Apr-06 10:30N 30°11' W 093°19'0 0.0
2017-Apr-06 10:00N 30°11' W 093°19'0 0.0
2017-Apr-06 09:30N 30°11' W 093°19'0 0.0
2017-Apr-06 09:00N 30°11' W 093°19'0 0.0
2017-Apr-06 08:30N 30°11' W 093°19'1 2.0
2017-Apr-06 08:00N 30°10' W 093°19'2 4.4
2017-Apr-06 07:31N 30°08' W 093°20'2 4.7
2017-Apr-06 07:00N 30°06' W 093°20'1 2.7
2017-Apr-06 06:30N 30°04' W 093°20'0 0.1
2017-Apr-06 06:01N 30°04' W 093°20'0 0.0
2017-Apr-06 05:31N 30°04' W 093°20'0 0.0
2017-Apr-06 05:01N 30°04' W 093°20'0 0.0
2017-Apr-06 04:30N 30°04' W 093°20'0 0.0
2017-Apr-06 04:00N 30°04' W 093°20'0 0.0
2017-Apr-06 03:30N 30°04' W 093°20'0 0.0
2017-Apr-06 03:00N 30°04' W 093°20'0 0.0
2017-Apr-06 02:30N 30°04' W 093°20'0 0.0
2017-Apr-06 02:00N 30°04' W 093°20'0 0.0
2017-Apr-06 01:31N 30°04' W 093°20'0 0.0
2017-Apr-06 01:00N 30°04' W 093°20'0 0.0
2017-Apr-06 00:31N 30°04' W 093°20'0 0.0
2017-Apr-06 00:00N 30°04' W 093°20'0 0.0
2017-Apr-05 23:30N 30°04' W 093°20'0 0.0
2017-Apr-05 23:01N 30°04' W 093°20'0 0.0
2017-Apr-05 22:30N 30°04' W 093°20'0 0.0
2017-Apr-05 22:00N 30°04' W 093°20'0 0.0
2017-Apr-05 21:30N 30°04' W 093°20'0 0.0
2017-Apr-05 21:01N 30°04' W 093°20'0 0.0
2017-Apr-05 20:30N 30°04' W 093°20'0 0.0
2017-Apr-05 20:00N 30°04' W 093°20'0 0.0
2017-Apr-05 19:30N 30°04' W 093°20'0 0.0
2017-Apr-05 19:00N 30°04' W 093°20'0 0.0
2017-Apr-05 18:30N 30°04' W 093°20'0 0.0
2017-Apr-05 18:00N 30°04' W 093°20'0 0.0
2017-Apr-05 17:30N 30°04' W 093°20'0 0.0
2017-Apr-05 17:01N 30°04' W 093°20'0 0.0
2017-Apr-05 16:30N 30°04' W 093°20'0 0.0
2017-Apr-05 16:01N 30°04' W 093°20'0 0.0
2017-Apr-05 15:30N 30°04' W 093°20'0 0.0
2017-Apr-05 15:00N 30°04' W 093°20'0 0.0
2017-Apr-05 14:01N 30°04' W 093°20'0 0.0
2017-Apr-05 13:30N 30°04' W 093°20'0 0.0
2017-Apr-05 13:01N 30°04' W 093°20'0 0.0
2017-Apr-05 12:30N 30°04' W 093°20'0 0.0
2017-Apr-05 12:00N 30°04' W 093°20'0 0.0
2017-Apr-05 11:30N 30°04' W 093°20'0 0.1
2017-Apr-05 11:01N 30°04' W 093°20'1 1.0
2017-Apr-05 10:30N 30°04' W 093°21'1 2.6
2017-Apr-05 10:00N 30°04' W 093°22'1 2.4
2017-Apr-05 09:30N 30°04' W 093°24'3 5.1
2017-Apr-05 09:00N 30°04' W 093°26'3 5.2
2017-Apr-05 08:30N 30°04' W 093°30'3 5.1
2017-Apr-05 08:00N 30°04' W 093°32'3 5.3
2017-Apr-05 07:29N 30°04' W 093°36'3 5.3
2017-Apr-05 06:55N 30°04' W 093°39'21 1.4
2017-Apr-04 15:49N 29°51' W 093°58'0 0.0
2017-Apr-04 14:34N 29°51' W 093°58'0 0.0
2017-Apr-04 13:58N 29°51' W 093°58'0 0.0
2017-Apr-04 13:30N 29°51' W 093°58'0 0.0
2017-Apr-04 13:00N 29°51' W 093°58'0 0.0
2017-Apr-04 12:30N 29°51' W 093°58'  
Track history (hours):
 
Tides and Currents Weather Stations Pressure Air Temp Water Temp Dewpoint Dewpoint Depression Visibility Wind Speed Wind Dir Waves Ship Positions

George Allen

Owner: Blessey Enterprises, Inc., Harahan, LA. More information available from US FCC via Universal Licensing System and Coast Guard Vessel Documentation Center.

Last reported at 2017-Apr-14 12:05 UTC. Time now 2017-Apr-29 13:46 UTC.
Position N 29°33' W 090°28'.
Warning: this ship's position is 15 days out of date.

Length 23 m; draft 3.5 m.

Type: Towing. MMSI: 367508440.

Date/timePositionNaut miles runAvg speedWind from/ knotsBaromVisibWave heightAir tempDewpointWater temp
2017-Apr-14 12:05N 29°33' W 090°28'0 5.0
2017-Apr-14 12:00N 29°33' W 090°28'3 5.2
2017-Apr-14 11:30N 29°34' W 090°31'3 5.0
2017-Apr-14 11:00N 29°34' W 090°34'2 4.8
2017-Apr-14 10:30N 29°35' W 090°37'2 4.9
2017-Apr-14 10:00N 29°36' W 090°39'2 4.8
2017-Apr-14 09:30N 29°37' W 090°42'2 3.5
2017-Apr-14 09:00N 29°35' W 090°43'2 3.5
2017-Apr-14 08:30N 29°34' W 090°44'3 5.1
2017-Apr-14 08:00N 29°32' W 090°46'3 6.1
2017-Apr-14 07:30N 29°32' W 090°50'3 5.9
2017-Apr-14 07:00N 29°32' W 090°53'3 6.1
2017-Apr-14 06:30N 29°34' W 090°56'49 4.0
2017-Apr-13 18:07N 29°49' W 091°50'3 4.5
2017-Apr-13 17:25N 29°51' W 091°53'2 5.2
2017-Apr-13 17:00N 29°51' W 091°55'2 5.0
2017-Apr-13 16:30N 29°50' W 091°58'2 4.7
2017-Apr-13 16:00N 29°50' W 092°01'3 5.2
2017-Apr-13 15:30N 29°49' W 092°03'3 5.5
2017-Apr-13 15:00N 29°48' W 092°06'3 5.4
2017-Apr-13 14:30N 29°47' W 092°09'5 4.8
2017-Apr-13 13:30N 29°48' W 092°15'3 5.1
2017-Apr-13 13:00N 29°49' W 092°17'2 4.5
2017-Apr-13 12:30N 29°50' W 092°20'2 4.3
2017-Apr-13 11:58N 29°52' W 092°22'2 4.5
2017-Apr-13 11:30N 29°53' W 092°24'0 0.3
2017-Apr-13 11:00N 29°53' W 092°24'0 0.0
2017-Apr-13 10:30N 29°53' W 092°24'0 0.3
2017-Apr-13 10:00N 29°53' W 092°24'0 0.3
2017-Apr-13 09:11N 29°53' W 092°24'0 0.3
2017-Apr-13 08:59N 29°53' W 092°24'1 2.4
2017-Apr-13 08:30N 29°53' W 092°26'3 4.2
2017-Apr-13 07:42N 29°54' W 092°30'8 4.7
2017-Apr-13 05:55N 29°56' W 092°39'2 4.9
2017-Apr-13 05:27N 29°57' W 092°41'5 4.6
2017-Apr-13 04:20N 29°58' W 092°47'13 4.3
2017-Apr-13 01:18N 29°56' W 093°02'1 4.5
2017-Apr-13 01:00N 29°56' W 093°03'2 4.3
2017-Apr-13 00:30N 29°56' W 093°06'1 1.6
2017-Apr-13 00:00N 29°56' W 093°07'2 4.4
2017-Apr-12 23:30N 29°56' W 093°09'2 4.3
2017-Apr-12 23:00N 29°58' W 093°11'2 4.5
2017-Apr-12 22:30N 29°59' W 093°13'2 4.1
2017-Apr-12 22:00N 30°01' W 093°14'2 4.1
2017-Apr-12 21:30N 30°02' W 093°16'2 4.2
2017-Apr-12 21:00N 30°04' W 093°16'2 3.0
2017-Apr-12 20:30N 30°05' W 093°18'1 2.2
2017-Apr-12 20:00N 30°06' W 093°19'2 4.1
2017-Apr-12 19:30N 30°05' W 093°20'2 3.6
2017-Apr-12 19:00N 30°04' W 093°22'0 0.0
2017-Apr-12 18:30N 30°04' W 093°22'0 0.0
2017-Apr-12 18:00N 30°04' W 093°22'0 0.0
2017-Apr-12 17:30N 30°04' W 093°22'0 0.4
2017-Apr-12 17:00N 30°04' W 093°22'1 2.9
2017-Apr-12 16:30N 30°04' W 093°24'2 3.6
2017-Apr-12 16:00N 30°04' W 093°26'2 4.1
2017-Apr-12 15:30N 30°04' W 093°28'2 3.6
2017-Apr-12 15:00N 30°04' W 093°30'2 4.0
2017-Apr-12 14:30N 30°04' W 093°33'4 3.8
2017-Apr-12 13:30N 30°04' W 093°37'2 4.2
2017-Apr-12 13:00N 30°04' W 093°40'  
2017-Apr-07 13:07N 29°48' W 094°01'0 4.0
2017-Apr-07 13:00N 29°48' W 094°00'3 3.4
2017-Apr-07 12:15N 29°49' W 093°58'2 5.2
2017-Apr-07 11:53N 29°51' W 093°57'3 5.8
2017-Apr-07 11:19N 29°54' W 093°55'3 5.9
2017-Apr-07 10:51N 29°56' W 093°52'7 4.9
2017-Apr-07 09:29N 29°60' W 093°46'3 5.4
2017-Apr-07 09:00N 30°02' W 093°44'3 4.7
2017-Apr-07 08:28N 30°03' W 093°42'2 4.6
2017-Apr-07 08:01N 30°04' W 093°40'2 4.6
2017-Apr-07 07:30N 30°04' W 093°37'2 4.2
2017-Apr-07 07:00N 30°04' W 093°35'2 4.0
2017-Apr-07 06:30N 30°04' W 093°32'2 4.1
2017-Apr-07 06:01N 30°04' W 093°30'2 4.1
2017-Apr-07 05:31N 30°04' W 093°27'2 4.1
2017-Apr-07 05:00N 30°04' W 093°25'2 4.0
2017-Apr-07 04:31N 30°04' W 093°23'2 3.5
2017-Apr-07 04:00N 30°04' W 093°21'2 3.7
2017-Apr-07 03:30N 30°05' W 093°20'3 5.8
2017-Apr-07 03:00N 30°08' W 093°20'3 5.4
2017-Apr-07 02:31N 30°11' W 093°19'0 0.3
2017-Apr-07 02:00N 30°11' W 093°19'0 0.3
2017-Apr-07 01:30N 30°11' W 093°19'0 0.0
2017-Apr-07 01:00N 30°11' W 093°19'0 0.0
2017-Apr-07 00:30N 30°11' W 093°19'0 0.0
2017-Apr-07 00:01N 30°11' W 093°19'0 0.0
2017-Apr-06 23:30N 30°11' W 093°19'0 0.0
2017-Apr-06 23:00N 30°11' W 093°19'0 0.0
2017-Apr-06 22:30N 30°11' W 093°19'0 0.0
2017-Apr-06 22:00N 30°11' W 093°19'0 0.0
2017-Apr-06 21:30N 30°11' W 093°19'0 0.0
2017-Apr-06 21:00N 30°11' W 093°19'0 0.0
2017-Apr-06 20:30N 30°11' W 093°19'0 0.0
2017-Apr-06 20:01N 30°11' W 093°19'0 0.0
2017-Apr-06 19:31N 30°11' W 093°19'0 0.0
2017-Apr-06 19:00N 30°11' W 093°19'0 0.0
2017-Apr-06 18:30N 30°11' W 093°19'0 0.0
2017-Apr-06 18:00N 30°11' W 093°19'0 0.0
2017-Apr-06 17:30N 30°11' W 093°19'0 0.0
2017-Apr-06 17:01N 30°11' W 093°19'0 0.0
2017-Apr-06 16:31N 30°11' W 093°19'0 0.0
2017-Apr-06 16:00N 30°11' W 093°19'0 0.0
2017-Apr-06 15:30N 30°11' W 093°19'0 0.0
2017-Apr-06 15:01N 30°11' W 093°19'0 0.0
2017-Apr-06 14:30N 30°11' W 093°19'0 0.0
2017-Apr-06 13:30N 30°11' W 093°19'0 0.0
2017-Apr-06 13:00N 30°11' W 093°19'0 0.0
2017-Apr-06 12:30N 30°11' W 093°19'0 0.0
2017-Apr-06 12:00N 30°11' W 093°19'0 0.0
2017-Apr-06 11:30N 30°11' W 093°19'0 0.0
2017-Apr-06 11:00N 30°11' W 093°19'0 0.0
2017-Apr-06 10:30N 30°11' W 093°19'0 0.0
2017-Apr-06 10:00N 30°11' W 093°19'0 0.0
2017-Apr-06 09:30N 30°11' W 093°19'0 0.0
2017-Apr-06 09:00N 30°11' W 093°19'0 0.0
2017-Apr-06 08:30N 30°11' W 093°19'1 2.0
2017-Apr-06 08:00N 30°10' W 093°19'2 4.4
2017-Apr-06 07:31N 30°08' W 093°20'2 4.7
2017-Apr-06 07:00N 30°06' W 093°20'1 2.7
2017-Apr-06 06:30N 30°04' W 093°20'0 0.1
2017-Apr-06 06:01N 30°04' W 093°20'0 0.0
2017-Apr-06 05:31N 30°04' W 093°20'0 0.0
2017-Apr-06 05:01N 30°04' W 093°20'0 0.0
2017-Apr-06 04:30N 30°04' W 093°20'0 0.0
2017-Apr-06 04:00N 30°04' W 093°20'0 0.0
2017-Apr-06 03:30N 30°04' W 093°20'0 0.0
2017-Apr-06 03:00N 30°04' W 093°20'0 0.0
2017-Apr-06 02:30N 30°04' W 093°20'0 0.0
2017-Apr-06 02:00N 30°04' W 093°20'0 0.0
2017-Apr-06 01:31N 30°04' W 093°20'0 0.0
2017-Apr-06 01:00N 30°04' W 093°20'0 0.0
2017-Apr-06 00:31N 30°04' W 093°20'0 0.0
2017-Apr-06 00:00N 30°04' W 093°20'0 0.0
2017-Apr-05 23:30N 30°04' W 093°20'0 0.0
2017-Apr-05 23:01N 30°04' W 093°20'0 0.0
2017-Apr-05 22:30N 30°04' W 093°20'0 0.0
2017-Apr-05 22:00N 30°04' W 093°20'0 0.0
2017-Apr-05 21:30N 30°04' W 093°20'0 0.0
2017-Apr-05 21:01N 30°04' W 093°20'0 0.0
2017-Apr-05 20:30N 30°04' W 093°20'0 0.0
2017-Apr-05 20:00N 30°04' W 093°20'0 0.0
2017-Apr-05 19:30N 30°04' W 093°20'0 0.0
2017-Apr-05 19:00N 30°04' W 093°20'0 0.0
2017-Apr-05 18:30N 30°04' W 093°20'0 0.0
2017-Apr-05 18:00N 30°04' W 093°20'0 0.0
2017-Apr-05 17:30N 30°04' W 093°20'0 0.0
2017-Apr-05 17:01N 30°04' W 093°20'0 0.0
2017-Apr-05 16:30N 30°04' W 093°20'0 0.0
2017-Apr-05 16:01N 30°04' W 093°20'0 0.0
2017-Apr-05 15:30N 30°04' W 093°20'0 0.0
2017-Apr-05 15:00N 30°04' W 093°20'0 0.0
2017-Apr-05 14:01N 30°04' W 093°20'0 0.0
2017-Apr-05 13:30N 30°04' W 093°20'0 0.0
2017-Apr-05 13:01N 30°04' W 093°20'0 0.0
2017-Apr-05 12:30N 30°04' W 093°20'0 0.0
2017-Apr-05 12:00N 30°04' W 093°20'0 0.0
2017-Apr-05 11:30N 30°04' W 093°20'0 0.1
2017-Apr-05 11:01N 30°04' W 093°20'1 1.0
2017-Apr-05 10:30N 30°04' W 093°21'1 2.6
2017-Apr-05 10:00N 30°04' W 093°22'1 2.4
2017-Apr-05 09:30N 30°04' W 093°24'3 5.1
2017-Apr-05 09:00N 30°04' W 093°26'3 5.2
2017-Apr-05 08:30N 30°04' W 093°30'3 5.1
2017-Apr-05 08:00N 30°04' W 093°32'3 5.3
2017-Apr-05 07:29N 30°04' W 093°36'3 5.3
2017-Apr-05 06:55N 30°04' W 093°39'21 1.4
2017-Apr-04 15:49N 29°51' W 093°58'0 0.0
2017-Apr-04 14:34N 29°51' W 093°58'0 0.0
2017-Apr-04 13:58N 29°51' W 093°58'0 0.0
2017-Apr-04 13:30N 29°51' W 093°58'0 0.0
2017-Apr-04 13:00N 29°51' W 093°58'0 0.0
2017-Apr-04 12:30N 29°51' W 093°58'  

Dump ship's entire track history